Terminal Aerodrome Forecast
Issued by NWS

Home | Current Version | Previous Version | Graphics & Text | Print | Product List | Glossary On
Versions: 1 2 3 4 5 6 7 8 9 10 11 12 13 14 15 16 17 18 19 20 21 22 23
000
FTUS43 KGRB 270520
TAFMTW
TAF
KMTW 270520Z 2706/2806 00000KT 3SM BR SCT007 BKN250
      TEMPO 2708/2712 1/2SM FG BKN004
     FM271500 13007KT 6SM BR SCT025 OVC060
      TEMPO 2721/2801 3SM TSRA BKN025CB
     FM280100 15004KT 5SM -SHRA BR BKN025=

USA.gov is the U.S. government's official web portal to all federal, state and local government web resources and services.